Time;durP1;ratioP1;P1;durP2;ratioP2;P2;SDS_P1;SDS_P2;PMS_P1;PMS_P2;Temp;Humidity;BMP_temperature;BMP_pressure;BME280_temperature;BME280_humidity;BME280_pressure;Samples;Min_cycle;Max_cycle;Signal;HPM_P1;HPM_P2
2023/01/16 00:01:58;;;;;;;33.72;20.00;;;;;;;2.67;64.43;94864.75;5088638;28;20036;-69
2023/01/16 00:04:24;;;;;;;31.40;19.23;;;;;;;2.67;64.62;94857.41;5086574;28;20504;-69
2023/01/16 00:06:49;;;;;;;29.52;18.98;;;;;;;2.70;64.11;94852.38;5070115;28;20024;-68
2023/01/16 00:09:14;;;;;;;36.28;20.25;;;;;;;2.70;64.10;94852.38;5087291;28;20063;-68
2023/01/16 00:11:40;;;;;;;33.15;18.70;;;;;;;2.71;64.69;94851.97;5087738;28;20028;-67
2023/01/16 00:14:05;;;;;;;30.77;17.77;;;;;;;2.66;64.49;94846.94;5088471;28;20055;-68
2023/01/16 00:16:31;;;;;;;37.53;19.90;;;;;;;2.66;64.20;94846.94;5086024;28;20485;-67
2023/01/16 00:18:56;;;;;;;29.60;17.88;;;;;;;2.64;64.22;94839.19;5088158;28;20032;-67
2023/01/16 00:21:25;;;;;;;33.80;18.92;;;;;;;2.66;64.42;94833.38;5087230;28;20043;-68
2023/01/16 00:23:52;;;;;;;32.55;17.83;;;;;;;2.63;64.08;94828.69;5087797;28;20478;-68
2023/01/16 00:26:18;;;;;;;31.88;18.00;;;;;;;2.62;64.20;94835.28;5087873;28;20470;-69
2023/01/16 00:28:43;;;;;;;33.00;18.80;;;;;;;2.61;63.83;94834.53;5087485;28;20025;-69
2023/01/16 00:31:09;;;;;;;33.53;18.55;;;;;;;2.63;64.07;94832.19;5088115;28;20031;-68
2023/01/16 00:33:34;;;;;;;35.85;17.85;;;;;;;2.63;64.24;94820.56;5086236;28;20028;-69
2023/01/16 00:36:00;;;;;;;32.60;18.25;;;;;;;2.56;64.99;94826.00;5088000;28;20020;-69
2023/01/16 00:38:26;;;;;;;31.55;18.80;;;;;;;2.49;65.23;94820.56;5086970;28;20145;-68
2023/01/16 00:40:51;;;;;;;33.47;18.40;;;;;;;2.47;65.01;94823.66;5087661;28;20028;-68
2023/01/16 00:43:16;;;;;;;31.60;18.30;;;;;;;2.46;65.52;94821.31;5089014;28;20032;-69
2023/01/16 00:45:42;;;;;;;29.08;17.70;;;;;;;2.48;65.54;94817.06;5087009;28;20024;-70
2023/01/16 00:48:08;;;;;;;32.35;17.98;;;;;;;2.44;65.32;94819.00;5088154;28;20107;-68
2023/01/16 00:50:33;;;;;;;31.50;18.05;;;;;;;2.49;64.87;94813.19;5086649;28;20549;-68
2023/01/16 00:52:59;;;;;;;34.15;18.48;;;;;;;2.51;64.58;94819.00;5087559;28;20024;-68
2023/01/16 00:55:24;;;;;;;30.75;16.83;;;;;;;2.53;64.68;94821.34;5086623;28;20097;-68
2023/01/16 00:57:50;;;;;;;34.28;18.30;;;;;;;2.57;65.03;94820.16;5087575;28;20462;-67
2023/01/16 01:00:19;;;;;;;31.20;17.27;;;;;;;2.58;65.42;94810.09;5086833;28;20027;-68
2023/01/16 01:02:45;;;;;;;31.77;17.33;;;;;;;2.57;65.26;94811.25;5086877;28;20032;-68
2023/01/16 01:05:10;;;;;;;29.75;17.13;;;;;;;2.57;64.85;94809.31;5087448;28;20028;-68
2023/01/16 01:07:36;;;;;;;33.58;16.98;;;;;;;2.51;64.50;94808.16;5086772;28;20020;-69
2023/01/16 01:10:01;;;;;;;31.55;18.00;;;;;;;2.54;65.00;94812.03;5087240;28;20043;-68
2023/01/16 01:12:26;;;;;;;30.70;17.60;;;;;;;2.54;64.92;94812.81;5086160;28;20016;-67
2023/01/16 01:14:52;;;;;;;27.27;16.63;;;;;;;2.49;65.54;94810.47;5087075;28;20502;-69
2023/01/16 01:17:17;;;;;;;29.58;17.02;;;;;;;2.48;65.12;94811.66;5086319;28;20486;-68
2023/01/16 01:19:43;;;;;;;31.63;18.17;;;;;;;2.41;65.88;94795.38;5087007;28;20024;-67
2023/01/16 01:22:08;;;;;;;28.73;15.90;;;;;;;2.42;66.10;94793.44;5085391;28;20031;-69
2023/01/16 01:24:34;;;;;;;27.85;15.90;;;;;;;2.46;65.12;94788.75;5086497;28;20028;-68
2023/01/16 01:26:59;;;;;;;26.85;15.70;;;;;;;2.47;65.97;94784.91;5086911;28;20028;-69
2023/01/16 01:29:25;;;;;;;29.15;16.05;;;;;;;2.38;66.12;94788.78;5085700;28;20032;-69
2023/01/16 01:31:50;;;;;;;29.50;16.23;;;;;;;2.39;65.93;94784.13;5086865;28;20032;-67
2023/01/16 01:34:16;;;;;;;30.13;16.33;;;;;;;2.45;65.26;94784.50;5086086;28;20097;-68
2023/01/16 01:36:41;;;;;;;30.40;18.40;;;;;;;2.45;66.05;94777.13;5086342;28;20033;-68
2023/01/16 01:39:07;;;;;;;32.35;17.88;;;;;;;2.37;66.34;94776.38;5088909;28;20089;-68
2023/01/16 01:41:32;;;;;;;27.95;17.13;;;;;;;2.35;66.08;94780.63;5086242;28;20093;-68
2023/01/16 01:43:58;;;;;;;27.45;15.95;;;;;;;2.39;65.76;94778.69;5086763;28;20032;-69
2023/01/16 01:46:42;;;;;;;31.45;17.77;;;;;;;2.35;65.80;94778.72;5085538;28;20077;-68
2023/01/16 01:49:15;;;;;;;29.45;17.42;;;;;;;2.27;65.63;94779.09;5085088;28;20039;-69
2023/01/16 01:51:41;;;;;;;29.85;16.55;;;;;;;2.32;65.56;94773.28;5084871;28;20505;-69
2023/01/16 01:54:17;;;;;;;35.45;17.67;;;;;;;2.35;65.51;94777.91;5068212;28;20023;-67
2023/01/16 01:56:52;;;;;;;34.53;17.60;;;;;;;2.35;65.47;94775.19;5068202;28;20063;-69
2023/01/16 01:59:20;;;;;;;31.13;16.95;;;;;;;2.37;65.03;94773.66;5085892;28;20032;-69
2023/01/16 02:01:46;;;;;;;32.80;18.67;;;;;;;2.37;65.05;94762.81;5084839;28;20024;-68
2023/01/16 02:04:19;;;;;;;33.53;18.10;;;;;;;2.40;65.07;94763.97;5084089;28;20024;-68
2023/01/16 02:06:47;;;;;;;32.53;18.70;;;;;;;2.38;64.52;94761.63;5084329;28;20437;-67
2023/01/16 02:09:13;;;;;;;31.48;18.23;;;;;;;2.40;64.35;94762.00;5084407;28;20495;-69
2023/01/16 02:11:43;;;;;;;32.42;18.48;;;;;;;2.44;64.35;94751.19;5084505;28;20023;-70
2023/01/16 02:14:10;;;;;;;28.90;15.93;;;;;;;2.39;64.22;94757.00;5084720;28;20044;-68
2023/01/16 02:19:50;;;;;;;30.88;17.35;;;;;;;2.42;64.58;94755.44;5070561;28;20119;-68
2023/01/16 02:22:53;;;;;;;30.15;16.65;;;;;;;2.42;64.93;94745.38;5084061;28;20108;-68
2023/01/16 02:25:46;;;;;;;28.08;17.13;;;;;;;2.36;63.83;94753.13;5085304;28;20471;-68
2023/01/16 02:28:20;;;;;;;31.15;17.08;;;;;;;2.32;64.18;94755.06;5085718;28;20503;-68
2023/01/16 02:31:08;;;;;;;31.88;16.60;;;;;;;2.33;63.44;94747.69;5085001;28;20043;-68
2023/01/16 02:34:02;;;;;;;31.02;17.75;;;;;;;2.31;63.48;94741.88;5068303;28;20028;-68
2023/01/16 02:36:56;;;;;;;29.63;15.87;;;;;;;2.25;64.05;94736.06;5086903;28;20031;-70
2023/01/16 02:39:59;;;;;;;28.25;16.23;;;;;;;2.24;63.74;94742.66;5084786;28;20704;-68
2023/01/16 02:42:27;;;;;;;28.77;17.35;;;;;;;2.29;63.72;94734.13;5084649;28;20040;-68
2023/01/16 02:45:16;;;;;;;30.90;17.75;;;;;;;2.22;63.55;94731.41;5085743;28;20390;-67
2023/01/16 02:47:48;;;;;;;30.00;17.23;;;;;;;2.25;64.18;94727.94;5069041;28;20031;-69
2023/01/16 02:50:19;;;;;;;31.95;17.15;;;;;;;2.24;64.07;94731.03;5085344;28;20032;-67
2023/01/16 02:52:51;;;;;;;31.23;18.42;;;;;;;2.16;64.32;94713.97;5085334;28;20039;-68
2023/01/16 02:55:25;;;;;;;28.40;16.73;;;;;;;2.15;63.90;94725.22;5068527;28;20114;-69
2023/01/16 02:57:54;;;;;;;31.55;17.90;;;;;;;2.08;64.11;94726.00;5088651;28;20385;-69
2023/01/16 03:00:20;;;;;;;29.98;15.80;;;;;;;2.14;63.62;94719.03;5071049;28;20773;-67
2023/01/16 03:02:45;;;;;;;33.65;17.65;;;;;;;2.13;63.49;94729.09;5087886;28;20031;-69
2023/01/16 03:05:11;;;;;;;29.38;17.67;;;;;;;2.19;63.42;94721.34;5088792;28;20028;-69
2023/01/16 03:07:43;;;;;;;30.88;18.08;;;;;;;2.24;63.15;94726.41;5089789;28;20055;-69
2023/01/16 03:10:30;;;;;;;31.13;17.73;;;;;;;2.19;64.43;94718.66;5089307;28;20129;-69
2023/01/16 03:13:32;;;;;;;31.02;17.38;;;;;;;2.19;63.90;94710.50;5088700;28;20517;-68
2023/01/16 03:16:20;;;;;;;32.05;17.65;;;;;;;2.22;63.70;94703.53;5089242;28;20447;-69
2023/01/16 03:19:08;;;;;;;30.60;16.27;;;;;;;2.18;63.79;94698.13;5089216;28;20110;-69
2023/01/16 03:21:55;;;;;;;30.50;17.10;;;;;;;2.16;63.84;94697.72;5087351;28;20524;-68
2023/01/16 03:24:33;;;;;;;25.27;15.57;;;;;;;2.14;63.73;94691.91;5089390;28;20032;-68
2023/01/16 03:27:08;;;;;;;29.98;16.67;;;;;;;2.08;63.79;94688.03;5088625;28;20024;-70
2023/01/16 03:29:41;;;;;;;27.23;15.65;;;;;;;2.07;64.08;94681.84;5089091;28;20439;-68
2023/01/16 03:32:18;;;;;;;25.52;16.95;;;;;;;2.09;64.21;94690.34;5089874;28;20043;-68
2023/01/16 03:34:46;;;;;;;30.48;17.27;;;;;;;2.18;63.59;94676.41;5070831;28;20039;-68
2023/01/16 03:37:25;;;;;;;28.73;16.40;;;;;;;2.17;64.19;94672.13;5089180;28;20116;-69
2023/01/16 03:39:59;;;;;;;28.67;17.05;;;;;;;2.20;63.63;94665.94;5070552;28;20031;-69
2023/01/16 03:42:31;;;;;;;30.08;16.88;;;;;;;2.19;64.77;94655.50;5070349;28;20346;-68
2023/01/16 03:44:59;;;;;;;27.58;15.13;;;;;;;2.22;64.74;94665.53;5071413;28;20024;-69
2023/01/16 03:47:29;;;;;;;27.48;16.00;;;;;;;2.15;64.63;94657.44;5069858;28;20035;-69
2023/01/16 03:49:58;;;;;;;29.02;17.30;;;;;;;2.09;64.00;94659.75;5088715;28;20032;-70
2023/01/16 03:52:25;;;;;;;33.58;17.75;;;;;;;2.13;64.93;94653.16;5086729;28;20414;-68
2023/01/16 03:54:50;;;;;;;28.67;15.73;;;;;;;2.14;65.36;94648.53;5086836;28;20020;-68
2023/01/16 03:57:24;;;;;;;30.55;16.05;;;;;;;2.16;64.84;94653.53;5088348;28;20107;-69
2023/01/16 03:59:49;;;;;;;30.02;17.85;;;;;;;2.10;64.90;94645.78;5086591;28;20160;-69
2023/01/16 04:02:33;;;;;;;25.92;16.75;;;;;;;2.05;65.51;94656.25;5087396;28;20362;-69
2023/01/16 04:05:02;;;;;;;26.13;15.75;;;;;;;2.06;65.51;94649.66;5088091;28;20058;-67
2023/01/16 04:07:35;;;;;;;27.38;15.98;;;;;;;2.08;65.40;94658.97;5086942;28;20108;-68
2023/01/16 04:10:05;;;;;;;29.13;17.23;;;;;;;2.01;65.98;94655.50;5086373;28;20465;-69
2023/01/16 04:12:41;;;;;;;29.30;15.98;;;;;;;2.09;65.77;94646.19;5072122;28;20114;-68
2023/01/16 04:15:09;;;;;;;32.90;17.30;;;;;;;2.11;65.88;94643.84;5072806;28;20031;-67
2023/01/16 04:17:38;;;;;;;31.38;17.60;;;;;;;2.08;66.28;94645.41;5086102;28;20108;-68
2023/01/16 04:20:05;;;;;;;30.88;17.02;;;;;;;2.02;66.60;94651.63;5070001;28;20483;-68
2023/01/16 04:22:30;;;;;;;33.97;17.35;;;;;;;2.08;66.05;94655.50;5085669;28;20436;-69
2023/01/16 04:24:57;;;;;;;28.92;17.70;;;;;;;2.11;65.91;94641.16;5069629;28;20102;-69
2023/01/16 04:27:23;;;;;;;33.13;17.10;;;;;;;2.09;66.28;94644.25;5071811;28;20035;-69
2023/01/16 04:29:48;;;;;;;30.27;16.83;;;;;;;2.06;65.92;94636.13;5086099;28;20020;-67
2023/01/16 04:32:14;;;;;;;32.33;17.42;;;;;;;2.04;66.27;94631.09;5088105;28;20035;-69
2023/01/16 04:34:39;;;;;;;32.45;17.92;;;;;;;2.02;66.63;94635.38;5086947;28;20032;-68
2023/01/16 04:37:04;;;;;;;30.40;17.50;;;;;;;2.11;65.78;94628.34;5088157;28;20028;-67
2023/01/16 04:39:30;;;;;;;31.38;17.35;;;;;;;2.19;65.70;94636.50;5087116;28;20077;-72
2023/01/16 04:41:55;;;;;;;36.33;17.42;;;;;;;2.21;65.83;94620.59;5087523;28;20031;-67
2023/01/16 04:44:21;;;;;;;37.47;18.60;;;;;;;2.19;66.66;94629.16;5087105;28;20036;-69
2023/01/16 04:46:46;;;;;;;36.20;19.42;;;;;;;2.22;66.55;94622.16;5087469;28;20028;-68
2023/01/16 04:49:12;;;;;;;34.08;17.90;;;;;;;2.26;66.35;94623.69;5069216;28;20020;-68
2023/01/16 04:51:38;;;;;;;32.97;18.05;;;;;;;2.30;65.97;94629.91;5086785;28;20016;-69
2023/01/16 04:54:05;;;;;;;34.95;18.38;;;;;;;2.36;65.41;94631.03;5086368;28;20564;-68
2023/01/16 04:56:30;;;;;;;36.75;18.85;;;;;;;2.39;65.77;94624.03;5087180;28;20104;-69
2023/01/16 04:58:56;;;;;;;39.50;19.30;;;;;;;2.33;66.05;94631.81;5087924;28;20578;-68
2023/01/16 05:01:21;;;;;;;39.55;19.42;;;;;;;2.37;66.13;94629.88;5086532;28;20039;-68
2023/01/16 05:03:47;;;;;;;36.35;18.10;;;;;;;2.41;65.57;94627.16;5086944;28;20687;-68
2023/01/16 05:06:12;;;;;;;44.45;20.23;;;;;;;2.38;65.97;94633.34;5086743;28;20101;-67
2023/01/16 05:08:38;;;;;;;45.30;20.80;;;;;;;2.30;66.45;94624.47;5086577;28;20511;-67
2023/01/16 05:11:03;;;;;;;43.95;19.05;;;;;;;2.42;66.20;94633.34;5087421;28;20031;-68
2023/01/16 05:13:29;;;;;;;43.75;19.50;;;;;;;2.42;66.45;94620.56;5086266;28;20020;-68
2023/01/16 05:15:54;;;;;;;41.35;19.83;;;;;;;2.46;66.47;94623.25;5087028;28;20144;-68
2023/01/16 05:18:19;;;;;;;37.42;18.77;;;;;;;2.44;66.58;94615.50;5085908;28;20482;-68
2023/01/16 05:20:45;;;;;;;36.50;18.35;;;;;;;2.43;66.56;94605.06;5086672;28;20039;-67
2023/01/16 05:23:10;;;;;;;44.15;18.25;;;;;;;2.50;66.85;94610.47;5085364;28;20035;-68
2023/01/16 05:25:37;;;;;;;34.78;17.77;;;;;;;2.44;66.82;94609.31;5086422;28;20035;-69
2023/01/16 05:28:02;;;;;;;44.88;18.30;;;;;;;2.47;66.60;94597.69;5086658;28;20066;-69
2023/01/16 05:30:28;;;;;;;44.83;18.80;;;;;;;2.45;66.69;94594.56;5086769;28;20037;-68
2023/01/16 05:32:53;;;;;;;49.03;19.23;;;;;;;2.45;67.01;94597.28;5086671;28;20020;-69
2023/01/16 05:35:19;;;;;;;41.85;17.63;;;;;;;2.46;67.07;94599.59;5085808;28;20031;-69
2023/01/16 05:37:45;;;;;;;40.35;18.27;;;;;;;2.44;67.15;94580.25;5086265;28;20516;-67
2023/01/16 05:40:11;;;;;;;43.50;16.98;;;;;;;2.42;67.39;94593.44;5086184;28;20031;-69
2023/01/16 05:42:36;;;;;;;36.97;16.08;;;;;;;2.45;67.46;94589.16;5086243;28;20574;-67
2023/01/16 05:45:02;;;;;;;39.45;17.48;;;;;;;2.41;67.17;94597.31;5084890;28;20129;-68
2023/01/16 05:47:28;;;;;;;36.05;16.90;;;;;;;2.40;67.32;94593.03;5086521;28;20035;-68
2023/01/16 05:49:53;;;;;;;41.78;17.10;;;;;;;2.43;66.96;94591.50;5086357;28;20024;-67
2023/01/16 05:52:21;;;;;;;51.55;20.35;;;;;;;2.47;66.85;94595.75;5084741;28;20078;-69
2023/01/16 05:54:47;;;;;;;42.72;18.92;;;;;;;2.48;67.00;94591.88;5086268;28;20024;-68
2023/01/16 05:57:12;;;;;;;42.70;16.40;;;;;;;2.49;66.89;94595.34;5084401;28;20023;-68
2023/01/16 05:59:38;;;;;;;38.40;16.70;;;;;;;2.51;67.07;94593.00;5085987;28;20024;-69
2023/01/16 06:02:03;;;;;;;36.72;17.30;;;;;;;2.46;67.27;94585.25;5085780;28;20129;-68
2023/01/16 06:04:29;;;;;;;38.78;16.08;;;;;;;2.49;67.63;94573.63;5086318;28;20566;-68
2023/01/16 06:06:54;;;;;;;37.22;16.05;;;;;;;2.48;67.50;94574.81;5086032;28;20363;-68
2023/01/16 06:09:19;;;;;;;41.25;16.92;;;;;;;2.48;67.33;94570.16;5085392;28;20485;-68
2023/01/16 06:11:45;;;;;;;47.92;19.60;;;;;;;2.51;67.43;94572.06;5085998;28;20039;-67
2023/01/16 06:14:10;;;;;;;48.17;19.48;;;;;;;2.54;67.35;94563.16;5085347;28;20028;-69
2023/01/16 06:16:36;;;;;;;46.72;17.38;;;;;;;2.58;67.38;94561.22;5086125;28;20402;-67
2023/01/16 06:19:01;;;;;;;42.67;19.25;;;;;;;2.57;67.58;94561.56;5085057;28;20091;-68
2023/01/16 06:21:27;;;;;;;47.58;19.40;;;;;;;2.65;67.31;94571.25;5086094;28;20028;-68
2023/01/16 06:23:52;;;;;;;41.80;19.13;;;;;;;2.73;66.84;94578.19;5085293;28;20086;-68
2023/01/16 06:26:19;;;;;;;37.20;19.13;;;;;;;2.73;66.80;94580.91;5085824;28;20032;-69
2023/01/16 06:28:45;;;;;;;46.13;19.75;;;;;;;2.79;66.73;94589.41;5084618;28;20496;-69
2023/01/16 06:31:10;;;;;;;43.00;17.95;;;;;;;2.78;66.61;94585.16;5084710;28;20032;-68
2023/01/16 06:33:35;;;;;;;44.95;19.83;;;;;;;2.86;66.68;94582.00;5085650;28;20551;-69
2023/01/16 06:36:01;;;;;;;46.05;19.25;;;;;;;2.91;66.40;94588.94;5083901;28;20470;-70
2023/01/16 06:38:26;;;;;;;45.58;19.73;;;;;;;2.96;66.41;94596.69;5085825;28;20032;-69
2023/01/16 06:40:56;;;;;;;39.95;19.40;;;;;;;3.03;66.17;94590.44;5085175;28;20028;-69
2023/01/16 06:43:27;;;;;;;35.75;18.23;;;;;;;3.10;65.94;94587.72;5085270;28;20032;-69
2023/01/16 06:45:53;;;;;;;41.17;19.23;;;;;;;3.15;65.56;94584.56;5085452;28;20205;-69
2023/01/16 06:48:18;;;;;;;41.92;19.48;;;;;;;3.15;65.91;94574.47;5085032;28;20139;-69
2023/01/16 06:50:44;;;;;;;38.15;19.70;;;;;;;3.20;65.64;94560.47;5085649;28;20062;-68
2023/01/16 06:53:09;;;;;;;39.10;19.15;;;;;;;3.31;65.10;94554.97;5083510;28;20030;-69
2023/01/16 06:55:35;;;;;;;38.85;19.23;;;;;;;3.40;64.81;94563.44;5085309;28;20039;-68
2023/01/16 06:58:00;;;;;;;39.53;21.02;;;;;;;3.50;64.61;94571.91;5084927;28;20081;-67
2023/01/16 07:00:26;;;;;;;36.17;19.95;;;;;;;3.56;64.43;94571.09;5085354;28;20047;-68
2023/01/16 07:02:54;;;;;;;40.85;21.50;;;;;;;3.66;64.19;94572.94;5085062;28;20039;-68
2023/01/16 07:05:20;;;;;;;46.35;24.30;;;;;;;3.66;64.08;94564.78;5084846;28;20764;-69
2023/01/16 07:07:45;;;;;;;43.17;23.75;;;;;;;3.73;64.02;94563.97;5085653;28;20028;-69
2023/01/16 07:10:10;;;;;;;48.50;25.70;;;;;;;3.80;63.74;94568.56;5051984;28;20063;-68
2023/01/16 07:12:36;;;;;;;45.95;25.15;;;;;;;3.84;63.68;94561.94;5067402;28;20028;-70
2023/01/16 07:23:24;;;;;;;40.50;21.10;;;;;;;4.08;63.12;94562.88;5057706;28;20061;-68
2023/01/16 07:25:50;;;;;;;48.65;23.45;;;;;;;4.03;63.10;94567.97;5061577;28;20094;-69
2023/01/16 07:28:16;;;;;;;50.97;24.83;;;;;;;4.03;63.12;94568.75;5064405;28;20028;-68
2023/01/16 07:30:41;;;;;;;41.35;22.42;;;;;;;4.02;62.95;94559.03;5064868;28;20089;-68
2023/01/16 07:33:07;;;;;;;45.55;22.33;;;;;;;4.05;62.85;94560.94;5034317;28;49791;-68
2023/01/16 07:35:32;;;;;;;44.95;22.35;;;;;;;4.03;62.64;94552.41;5060196;28;20047;-67
2023/01/16 07:37:57;;;;;;;51.45;26.02;;;;;;;4.04;62.66;94550.47;5065657;28;20025;-68
2023/01/16 07:40:23;;;;;;;40.40;22.20;;;;;;;4.05;62.67;94538.41;5063724;28;20181;-68
2023/01/16 07:42:50;;;;;;;45.88;22.60;;;;;;;4.07;62.78;94544.19;5065693;28;20500;-69
2023/01/16 07:45:16;;;;;;;45.67;22.33;;;;;;;4.18;62.77;94539.44;5065752;28;20036;-70
2023/01/16 07:47:41;;;;;;;39.10;21.27;;;;;;;4.25;62.59;94544.81;5064500;28;20501;-68
2023/01/16 07:50:07;;;;;;;34.95;18.95;;;;;;;4.35;61.96;94543.91;5068069;28;20866;-68
2023/01/16 07:52:33;;;;;;;36.22;18.02;;;;;;;4.41;61.95;94527.91;5067046;28;20029;-70
2023/01/16 07:54:58;;;;;;;37.67;19.10;;;;;;;4.53;61.63;94530.13;5068498;28;20032;-69
2023/01/16 07:57:27;;;;;;;37.30;19.20;;;;;;;4.59;61.40;94527.69;5067996;28;20024;-68
2023/01/16 07:59:53;;;;;;;38.28;19.85;;;;;;;4.70;60.88;94507.34;5066301;28;20089;-68
2023/01/16 08:02:18;;;;;;;36.08;19.08;;;;;;;4.77;60.81;94504.50;5066032;28;20024;-69
2023/01/16 08:04:43;;;;;;;36.22;19.27;;;;;;;4.79;60.25;94510.31;5067998;28;20028;-68
2023/01/16 08:07:09;;;;;;;42.35;21.85;;;;;;;4.80;60.24;94513.81;5067478;28;20052;-68
2023/01/16 08:09:34;;;;;;;37.38;22.10;;;;;;;4.79;60.29;94521.19;5067795;28;20058;-68
2023/01/16 08:12:00;;;;;;;41.42;23.10;;;;;;;4.72;60.36;94513.13;5066296;28;20036;-69
2023/01/16 08:14:25;;;;;;;41.33;20.88;;;;;;;4.92;59.86;94521.41;5066981;28;20123;-70
2023/01/16 08:16:51;;;;;;;43.30;22.00;;;;;;;5.00;59.67;94527.56;5066947;28;20301;-68
2023/01/16 08:19:16;;;;;;;45.80;22.05;;;;;;;5.09;59.83;94527.03;5067280;28;20111;-69
2023/01/16 08:21:42;;;;;;;44.53;22.77;;;;;;;5.13;59.63;94542.16;5067809;28;20029;-68
2023/01/16 08:24:08;;;;;;;47.03;25.33;;;;;;;5.17;59.53;94531.22;5066256;28;20033;-69
2023/01/16 08:26:33;;;;;;;51.17;26.27;;;;;;;5.23;59.33;94527.59;5068073;28;20455;-70
2023/01/16 08:29:01;;;;;;;49.83;27.63;;;;;;;5.28;59.16;94521.69;5065399;28;20517;-69
2023/01/16 08:31:26;;;;;;;47.42;26.80;;;;;;;5.45;58.51;94519.06;5062966;28;20533;-68
2023/01/16 08:33:52;;;;;;;54.22;27.85;;;;;;;5.44;58.84;94512.09;5063986;28;20029;-68
2023/01/16 08:36:20;;;;;;;56.22;30.35;;;;;;;5.46;58.70;94515.97;5067132;28;20021;-68
2023/01/16 08:38:46;;;;;;;55.00;30.13;;;;;;;5.45;58.66;94497.28;5064367;28;20025;-69
2023/01/16 08:52:08;;;;;;;65.43;37.67;;;;;;;5.57;58.51;94492.03;5066277;28;19982;-69
2023/01/16 08:54:33;;;;;;;61.70;33.83;;;;;;;5.55;58.42;94499.81;5066368;28;20025;-69
2023/01/16 08:56:58;;;;;;;67.40;37.25;;;;;;;5.55;58.46;94496.31;5066919;28;20032;-68
2023/01/16 08:59:24;;;;;;;60.40;34.80;;;;;;;5.56;58.55;94493.22;5067587;28;20050;-69
2023/01/16 09:01:49;;;;;;;61.20;35.42;;;;;;;5.59;58.24;94483.41;5066722;28;20077;-68
2023/01/16 09:04:15;;;;;;;56.38;30.73;;;;;;;5.69;57.97;94487.16;5068253;28;20021;-68
2023/01/16 09:06:40;;;;;;;49.83;30.67;;;;;;;5.78;57.66;94492.81;5067322;28;20024;-68
2023/01/16 09:09:06;;;;;;;49.97;31.55;;;;;;;5.86;57.60;94477.88;5067000;28;20502;-68
2023/01/16 09:14:17;;;;;;;49.80;29.67;;;;;;;6.05;57.06;94482.63;5066673;28;20031;-67
2023/01/16 09:16:42;;;;;;;47.67;28.58;;;;;;;6.26;56.27;94483.41;5066743;28;20024;-68
2023/01/16 09:19:08;;;;;;;50.17;27.65;;;;;;;6.39;55.72;94467.94;5066288;28;20033;-69
2023/01/16 09:21:33;;;;;;;48.55;28.30;;;;;;;6.58;55.77;94466.38;5066653;28;20531;-69
2023/01/16 09:23:59;;;;;;;44.08;26.27;;;;;;;6.81;54.67;94455.34;5064681;28;20109;-69
2023/01/16 09:26:24;;;;;;;48.47;27.33;;;;;;;7.09;54.17;94439.50;5066733;28;20494;-69
2023/01/16 09:28:49;;;;;;;43.63;25.98;;;;;;;7.67;52.41;94450.59;5065900;28;20025;-68
2023/01/16 09:31:15;;;;;;;46.03;24.02;;;;;;;7.79;51.74;94449.88;5066653;28;20514;-69
2023/01/16 09:33:41;;;;;;;41.25;24.30;;;;;;;8.40;50.44;94438.09;5066160;28;20421;-69
2023/01/16 09:36:07;;;;;;;42.30;25.05;;;;;;;9.46;48.01;94438.03;5066360;28;20414;-68
2023/01/16 09:38:32;;;;;;;34.85;20.40;;;;;;;9.92;46.60;94436.50;5066943;28;20756;-69
2023/01/16 09:40:58;;;;;;;31.42;19.30;;;;;;;10.80;44.22;94440.06;5065557;28;20021;-68
2023/01/16 09:43:39;;;;;;;31.52;19.83;;;;;;;11.07;43.00;94441.41;5064872;28;20111;-68
2023/01/16 09:46:09;;;;;;;31.48;19.33;;;;;;;11.85;41.34;94410.75;5065534;28;20129;-68
2023/01/16 09:48:53;;;;;;;30.30;18.45;;;;;;;12.46;40.37;94416.41;5064956;28;20027;-68
2023/01/16 09:51:38;;;;;;;28.55;19.05;;;;;;;12.78;39.87;94412.19;5066558;28;20047;-69
2023/01/16 09:59:45;;;;;;;30.45;19.90;;;;;;;11.72;41.02;94418.34;5064500;28;20040;-69
2023/01/16 10:02:32;;;;;;;34.17;21.88;;;;;;;11.42;41.87;94407.00;5065311;28;20024;-69
2023/01/16 10:04:59;;;;;;;32.25;20.17;;;;;;;11.23;42.40;94410.13;5063610;28;20024;-69
2023/01/16 10:07:24;;;;;;;32.78;20.88;;;;;;;11.08;42.76;94398.94;5065605;28;20536;-68
2023/01/16 10:10:31;;;;;;;31.98;21.45;;;;;;;10.93;42.98;94390.47;5065536;28;20044;-69
2023/01/16 10:12:59;;;;;;;35.42;21.05;;;;;;;10.73;43.74;94373.56;5065478;28;20036;-68
2023/01/16 10:15:50;;;;;;;31.98;20.17;;;;;;;10.59;44.13;94369.38;5065277;28;20086;-68
2023/01/16 10:18:31;;;;;;;28.60;19.13;;;;;;;10.47;44.11;94357.25;5064548;28;20060;-67
2023/01/16 10:21:19;;;;;;;26.63;18.02;;;;;;;10.37;44.59;94364.66;5064950;28;20029;-69
2023/01/16 10:23:55;;;;;;;26.20;18.38;;;;;;;10.33;44.67;94350.31;5063654;28;20025;-69
2023/01/16 10:26:46;;;;;;;27.80;18.60;;;;;;;10.16;44.93;94339.97;5064401;28;20024;-67
2023/01/16 10:29:33;;;;;;;41.38;24.85;;;;;;;9.82;45.25;94347.03;5062175;28;20071;-67
2023/01/16 10:32:04;;;;;;;59.72;35.47;;;;;;;9.55;45.75;94337.38;5064177;28;20276;-68
2023/01/16 10:34:54;;;;;;;59.05;37.40;;;;;;;9.49;46.44;94333.66;5064896;28;20512;-69
2023/01/16 10:37:21;;;;;;;61.58;34.92;;;;;;;9.50;46.77;94329.69;5065284;28;20052;-68
2023/01/16 10:39:49;;;;;;;65.05;38.97;;;;;;;9.48;46.88;94336.84;5063939;28;20024;-68
2023/01/16 10:50:35;;;;;;;63.30;38.40;;;;;;;11.02;43.37;94301.72;5065209;28;20485;-69
2023/01/16 10:53:01;;;;;;;56.70;33.47;;;;;;;12.63;40.48;94276.22;5064093;28;20032;-67
2023/01/16 10:55:26;;;;;;;51.90;33.15;;;;;;;13.79;38.34;94279.94;5064647;28;20422;-67
2023/01/16 10:57:55;;;;;;;44.90;27.85;;;;;;;14.79;36.29;94265.56;5066235;28;20036;-68
2023/01/16 11:00:32;;;;;;;40.38;27.00;;;;;;;15.51;34.93;94249.19;5064084;28;20070;-68
2023/01/16 11:03:00;;;;;;;33.92;22.23;;;;;;;16.25;33.92;94262.59;5062916;28;20035;-68
2023/01/16 11:05:34;;;;;;;29.65;19.20;;;;;;;16.99;31.86;94261.94;5065297;28;20044;-68
2023/01/16 11:08:26;;;;;;;27.25;17.98;;;;;;;18.10;29.90;94257.38;5064377;28;20021;-68
2023/01/16 11:10:51;;;;;;;27.33;18.85;;;;;;;18.86;28.71;94262.78;5063923;28;20542;-69
2023/01/16 11:18:54;;;;;;;25.17;17.63;;;;;;;23.76;23.04;94259.03;5069130;28;20040;-68
2023/01/16 11:21:30;;;;;;;23.10;16.10;;;;;;;25.52;20.65;94248.88;5067155;28;20028;-69
2023/01/16 11:24:18;;;;;;;21.75;17.02;;;;;;;26.75;19.28;94251.00;5068411;28;20032;-68
2023/01/16 11:26:48;;;;;;;21.50;16.77;;;;;;;27.93;17.97;94259.13;5069009;28;20119;-68
2023/01/16 11:29:17;;;;;;;22.38;17.77;;;;;;;28.77;17.09;94258.06;5067031;28;20120;-69
2023/01/16 11:32:03;;;;;;;23.13;17.65;;;;;;;29.93;15.71;94250.19;5068684;28;20032;-68
2023/01/16 11:34:29;;;;;;;21.42;17.25;;;;;;;30.54;15.27;94247.44;5067460;28;20035;-68
2023/01/16 11:36:57;;;;;;;21.90;18.33;;;;;;;30.57;15.47;94246.28;5067148;28;20029;-69
2023/01/16 11:39:25;;;;;;;20.73;17.50;;;;;;;30.58;15.40;94238.53;5067630;28;20028;-67
2023/01/16 11:41:53;;;;;;;23.30;19.40;;;;;;;30.02;15.53;94233.28;5067416;28;20479;-69
2023/01/16 11:47:22;;;;;;;22.55;18.83;;;;;;;27.67;17.29;94220.75;5066971;28;20046;-69
2023/01/16 11:49:49;;;;;;;20.88;17.13;;;;;;;26.67;17.96;94208.72;5067768;28;20032;-68
2023/01/16 11:52:26;;;;;;;22.75;17.17;;;;;;;25.94;18.98;94198.88;5068564;28;20030;-69
2023/01/16 11:54:54;;;;;;;22.50;16.77;;;;;;;25.25;19.71;94190.00;5067150;28;20029;-68
2023/01/16 11:57:45;;;;;;;20.10;16.60;;;;;;;24.25;20.29;94181.94;5068457;28;20143;-67
2023/01/16 12:00:19;;;;;;;22.98;16.83;;;;;;;23.15;21.46;94185.19;5067805;28;20078;-68
2023/01/16 12:03:08;;;;;;;20.90;17.63;;;;;;;21.95;22.84;94175.59;5067804;28;20059;-68
2023/01/16 12:05:55;;;;;;;22.95;17.75;;;;;;;21.17;23.92;94163.34;5068216;28;20047;-68
2023/01/16 12:08:34;;;;;;;20.10;14.95;;;;;;;20.49;24.37;94170.88;5067372;28;20109;-69
2023/01/16 12:11:10;;;;;;;18.42;14.73;;;;;;;18.49;27.05;94157.28;5066398;28;20483;-68
2023/01/16 12:16:50;;;;;;;18.85;14.60;;;;;;;16.75;29.92;94151.28;5067407;28;20259;-69
2023/01/16 12:19:53;;;;;;;21.58;14.40;;;;;;;15.75;31.95;94159.53;5066543;28;20128;-68
2023/01/16 12:23:06;;;;;;;21.33;14.60;;;;;;;15.07;33.34;94133.88;5067950;28;20028;-69
2023/01/16 12:25:55;;;;;;;18.55;13.90;;;;;;;14.62;34.28;94143.59;5044729;28;20107;-68
2023/01/16 12:28:23;;;;;;;20.80;14.38;;;;;;;14.09;35.37;94128.75;5065421;28;20040;-68